sensor_id;sensor_type;location;lat;lon;timestamp;pressure;altitude;pressure_sealevel;temperature;humidity
63285;BME280;49409;55.708;37.522;2023-02-28T00:00:08;99849.28;;;-0.43;48.23
63285;BME280;49409;55.708;37.522;2023-02-28T00:02:35;99846.69;;;-0.40;48.03
63285;BME280;49409;55.708;37.522;2023-02-28T00:05:01;99843.66;;;-0.38;48.13
63285;BME280;49409;55.708;37.522;2023-02-28T00:07:28;99834.63;;;-0.42;47.84
63285;BME280;49409;55.708;37.522;2023-02-28T00:09:54;99830.69;;;-0.45;48.66
63285;BME280;49409;55.708;37.522;2023-02-28T00:12:19;99824.50;;;-0.45;48.47
63285;BME280;49409;55.708;37.522;2023-02-28T00:14:45;99831.03;;;-0.46;48.40
63285;BME280;49409;55.708;37.522;2023-02-28T00:19:57;99820.94;;;-0.37;47.76
63285;BME280;49409;55.708;37.522;2023-02-28T00:22:35;99817.31;;;-0.41;48.20
63285;BME280;49409;55.708;37.522;2023-02-28T00:25:00;99812.09;;;-0.46;48.14
63285;BME280;49409;55.708;37.522;2023-02-28T00:27:26;99807.38;;;-0.49;47.98
63285;BME280;49409;55.708;37.522;2023-02-28T00:29:51;99812.66;;;-0.53;48.50
63285;BME280;49409;55.708;37.522;2023-02-28T00:32:18;99812.06;;;-0.58;48.29
63285;BME280;49409;55.708;37.522;2023-02-28T00:34:44;99816.06;;;-0.65;47.87
63285;BME280;49409;55.708;37.522;2023-02-28T00:37:09;99811.19;;;-0.71;48.27
63285;BME280;49409;55.708;37.522;2023-02-28T00:39:37;99808.56;;;-0.80;48.29
63285;BME280;49409;55.708;37.522;2023-02-28T00:42:03;99817.25;;;-0.95;48.22
63285;BME280;49409;55.708;37.522;2023-02-28T00:44:29;99807.75;;;-1.02;48.28
63285;BME280;49409;55.708;37.522;2023-02-28T00:46:54;99801.91;;;-1.04;48.43
63285;BME280;49409;55.708;37.522;2023-02-28T00:49:21;99800.78;;;-1.03;48.46
63285;BME280;49409;55.708;37.522;2023-02-28T00:51:47;99798.88;;;-1.02;48.03
63285;BME280;49409;55.708;37.522;2023-02-28T00:54:12;99795.38;;;-1.03;48.41
63285;BME280;49409;55.708;37.522;2023-02-28T00:56:37;99797.41;;;-1.00;48.09
63285;BME280;49409;55.708;37.522;2023-02-28T00:59:03;99794.56;;;-1.03;48.11
63285;BME280;49409;55.708;37.522;2023-02-28T01:01:28;99796.41;;;-1.16;48.14
63285;BME280;49409;55.708;37.522;2023-02-28T01:03:53;99790.09;;;-1.20;48.86
63285;BME280;49409;55.708;37.522;2023-02-28T01:06:19;99787.03;;;-1.18;48.28
63285;BME280;49409;55.708;37.522;2023-02-28T01:08:44;99770.06;;;-1.19;48.59
63285;BME280;49409;55.708;37.522;2023-02-28T01:11:10;99769.91;;;-1.23;48.37
63285;BME280;49409;55.708;37.522;2023-02-28T01:13:36;99767.81;;;-1.17;48.02
63285;BME280;49409;55.708;37.522;2023-02-28T01:16:02;99765.88;;;-1.08;48.06
63285;BME280;49409;55.708;37.522;2023-02-28T01:18:27;99759.16;;;-1.02;47.92
63285;BME280;49409;55.708;37.522;2023-02-28T01:20:53;99756.13;;;-1.00;47.92
63285;BME280;49409;55.708;37.522;2023-02-28T01:23:19;99738.47;;;-0.97;47.71
63285;BME280;49409;55.708;37.522;2023-02-28T01:25:45;99738.59;;;-0.94;47.82
63285;BME280;49409;55.708;37.522;2023-02-28T01:28:10;99737.81;;;-0.94;47.49
63285;BME280;49409;55.708;37.522;2023-02-28T01:30:35;99736.88;;;-0.98;48.35
63285;BME280;49409;55.708;37.522;2023-02-28T01:33:01;99722.25;;;-0.97;47.87
63285;BME280;49409;55.708;37.522;2023-02-28T01:35:26;99727.19;;;-1.00;47.96
63285;BME280;49409;55.708;37.522;2023-02-28T01:37:52;99715.28;;;-0.98;47.99
63285;BME280;49409;55.708;37.522;2023-02-28T01:40:17;99718.63;;;-1.02;48.49
63285;BME280;49409;55.708;37.522;2023-02-28T01:42:42;99709.88;;;-0.98;48.10
63285;BME280;49409;55.708;37.522;2023-02-28T01:45:27;99707.41;;;-0.91;48.30
63285;BME280;49409;55.708;37.522;2023-02-28T01:48:03;99700.91;;;-0.90;47.54
63285;BME280;49409;55.708;37.522;2023-02-28T01:50:31;99694.72;;;-0.91;48.26
63285;BME280;49409;55.708;37.522;2023-02-28T01:53:00;99675.00;;;-0.91;48.30
63285;BME280;49409;55.708;37.522;2023-02-28T01:55:27;99675.13;;;-0.88;48.40
63285;BME280;49409;55.708;37.522;2023-02-28T01:57:55;99671.44;;;-0.83;47.61
63285;BME280;49409;55.708;37.522;2023-02-28T02:00:23;99669.41;;;-0.86;47.57
63285;BME280;49409;55.708;37.522;2023-02-28T02:02:50;99676.78;;;-0.95;48.09
63285;BME280;49409;55.708;37.522;2023-02-28T02:05:18;99668.91;;;-1.01;47.84
63285;BME280;49409;55.708;37.522;2023-02-28T02:07:45;99660.34;;;-1.03;47.73
63285;BME280;49409;55.708;37.522;2023-02-28T02:10:13;99657.84;;;-1.08;47.82
63285;BME280;49409;55.708;37.522;2023-02-28T02:15:26;99647.47;;;-1.18;48.21
63285;BME280;49409;55.708;37.522;2023-02-28T02:17:56;99638.22;;;-1.17;48.26
63285;BME280;49409;55.708;37.522;2023-02-28T02:43:49;99618.63;;;-1.26;48.00
63285;BME280;49409;55.708;37.522;2023-02-28T02:46:49;99602.75;;;-1.28;48.21
63285;BME280;49409;55.708;37.522;2023-02-28T02:49:24;99613.75;;;-1.33;48.32
63285;BME280;49409;55.708;37.522;2023-02-28T02:51:51;99605.97;;;-1.34;47.98
63285;BME280;49409;55.708;37.522;2023-02-28T02:54:28;99595.84;;;-1.37;47.90
63285;BME280;49409;55.708;37.522;2023-02-28T02:56:55;99595.84;;;-1.37;48.60
63285;BME280;49409;55.708;37.522;2023-02-28T02:59:22;99603.03;;;-1.42;48.72
63285;BME280;49409;55.708;37.522;2023-02-28T03:01:53;99580.06;;;-1.48;48.89
63285;BME280;49409;55.708;37.522;2023-02-28T03:04:21;99575.59;;;-1.44;48.29
63285;BME280;49409;55.708;37.522;2023-02-28T03:06:47;99585.59;;;-1.44;48.06
63285;BME280;49409;55.708;37.522;2023-02-28T03:09:12;99563.19;;;-1.45;48.75
63285;BME280;49409;55.708;37.522;2023-02-28T03:11:38;99564.66;;;-1.47;48.13
63285;BME280;49409;55.708;37.522;2023-02-28T03:14:20;99545.44;;;-1.46;48.77
63285;BME280;49409;55.708;37.522;2023-02-28T03:27:11;99543.84;;;-1.47;49.05
63285;BME280;49409;55.708;37.522;2023-02-28T03:29:49;99535.78;;;-1.34;47.95
63285;BME280;49409;55.708;37.522;2023-02-28T03:34:49;99517.91;;;-1.39;48.08
63285;BME280;49409;55.708;37.522;2023-02-28T03:37:18;99509.22;;;-1.45;48.71
63285;BME280;49409;55.708;37.522;2023-02-28T03:39:45;99523.97;;;-1.42;47.99
63285;BME280;49409;55.708;37.522;2023-02-28T03:42:14;99501.00;;;-1.48;48.11
63285;BME280;49409;55.708;37.522;2023-02-28T03:45:15;99499.09;;;-1.48;48.93
63285;BME280;49409;55.708;37.522;2023-02-28T03:47:40;99510.94;;;-1.40;48.72
63285;BME280;49409;55.708;37.522;2023-02-28T03:50:10;99498.75;;;-1.46;48.22
63285;BME280;49409;55.708;37.522;2023-02-28T03:52:42;99501.44;;;-1.46;48.84
63285;BME280;49409;55.708;37.522;2023-02-28T03:55:10;99490.13;;;-1.40;48.26
63285;BME280;49409;55.708;37.522;2023-02-28T04:00:09;99474.13;;;-1.45;48.02
63285;BME280;49409;55.708;37.522;2023-02-28T04:02:37;99471.44;;;-1.45;48.36
63285;BME280;49409;55.708;37.522;2023-02-28T04:05:02;99475.41;;;-1.42;48.05
63285;BME280;49409;55.708;37.522;2023-02-28T04:07:31;99457.50;;;-1.47;48.14
63285;BME280;49409;55.708;37.522;2023-02-28T04:09:57;99464.03;;;-1.48;48.48
63285;BME280;49409;55.708;37.522;2023-02-28T04:12:22;99460.31;;;-1.43;48.52
63285;BME280;49409;55.708;37.522;2023-02-28T04:14:48;99458.41;;;-1.43;47.84
63285;BME280;49409;55.708;37.522;2023-02-28T04:17:13;99450.53;;;-1.48;48.69
63285;BME280;49409;55.708;37.522;2023-02-28T04:19:39;99451.44;;;-1.44;48.51
63285;BME280;49409;55.708;37.522;2023-02-28T04:22:04;99448.50;;;-1.51;48.17
63285;BME280;49409;55.708;37.522;2023-02-28T04:24:29;99451.13;;;-1.42;48.45
63285;BME280;49409;55.708;37.522;2023-02-28T04:26:56;99461.34;;;-1.48;47.80
63285;BME280;49409;55.708;37.522;2023-02-28T04:29:25;99455.94;;;-1.48;48.12
63285;BME280;49409;55.708;37.522;2023-02-28T04:31:51;99446.03;;;-1.44;47.84
63285;BME280;49409;55.708;37.522;2023-02-28T04:34:23;99437.81;;;-1.47;48.16
63285;BME280;49409;55.708;37.522;2023-02-28T04:36:49;99436.16;;;-1.40;47.73
63285;BME280;49409;55.708;37.522;2023-02-28T04:39:16;99434.69;;;-1.37;47.63
63285;BME280;49409;55.708;37.522;2023-02-28T04:41:43;99444.69;;;-1.37;47.64
63285;BME280;49409;55.708;37.522;2023-02-28T04:44:08;99429.66;;;-1.26;47.29
63285;BME280;49409;55.708;37.522;2023-02-28T04:46:34;99427.03;;;-1.23;47.54
63285;BME280;49409;55.708;37.522;2023-02-28T04:48:59;99426.28;;;-1.23;47.34
63285;BME280;49409;55.708;37.522;2023-02-28T04:51:24;99415.25;;;-1.18;47.12
63285;BME280;49409;55.708;37.522;2023-02-28T04:53:50;99422.56;;;-1.18;47.56
63285;BME280;49409;55.708;37.522;2023-02-28T04:56:16;99410.06;;;-1.11;47.66
63285;BME280;49409;55.708;37.522;2023-02-28T04:58:41;99408.75;;;-1.05;47.09
63285;BME280;49409;55.708;37.522;2023-02-28T05:03:48;99400.28;;;-1.03;47.61
63285;BME280;49409;55.708;37.522;2023-02-28T05:06:14;99398.16;;;-0.97;46.98
63285;BME280;49409;55.708;37.522;2023-02-28T05:08:39;99403.34;;;-0.92;47.17
63285;BME280;49409;55.708;37.522;2023-02-28T05:11:06;99393.88;;;-0.86;46.71
63285;BME280;49409;55.708;37.522;2023-02-28T05:13:31;99381.66;;;-0.68;46.58
63285;BME280;49409;55.708;37.522;2023-02-28T05:15:56;99366.59;;;-0.69;46.63
63285;BME280;49409;55.708;37.522;2023-02-28T05:18:22;99376.22;;;-0.55;46.52
63285;BME280;49409;55.708;37.522;2023-02-28T05:20:47;99362.50;;;-0.50;46.58
63285;BME280;49409;55.708;37.522;2023-02-28T05:23:13;99357.19;;;-0.47;46.11
63285;BME280;49409;55.708;37.522;2023-02-28T05:25:39;99339.69;;;-0.37;45.86
63285;BME280;49409;55.708;37.522;2023-02-28T05:28:05;99341.84;;;-0.43;46.28
63285;BME280;49409;55.708;37.522;2023-02-28T05:30:30;99331.16;;;-0.39;46.01
63285;BME280;49409;55.708;37.522;2023-02-28T05:32:56;99336.72;;;-0.32;45.94
63285;BME280;49409;55.708;37.522;2023-02-28T05:35:22;99333.03;;;-0.27;46.18
63285;BME280;49409;55.708;37.522;2023-02-28T05:37:47;99315.53;;;-0.30;45.55
63285;BME280;49409;55.708;37.522;2023-02-28T05:40:13;99314.44;;;-0.29;45.19
63285;BME280;49409;55.708;37.522;2023-02-28T05:42:38;99316.00;;;-0.28;45.91
63285;BME280;49409;55.708;37.522;2023-02-28T05:45:04;99304.06;;;-0.27;45.75
63285;BME280;49409;55.708;37.522;2023-02-28T05:47:30;99290.53;;;-0.27;45.58
63285;BME280;49409;55.708;37.522;2023-02-28T05:49:55;99285.22;;;-0.23;45.59
63285;BME280;49409;55.708;37.522;2023-02-28T05:52:21;99290.72;;;-0.19;45.10
63285;BME280;49409;55.708;37.522;2023-02-28T05:54:46;99288.72;;;-0.07;45.51
63285;BME280;49409;55.708;37.522;2023-02-28T05:57:12;99292.66;;;-0.04;44.88
63285;BME280;49409;55.708;37.522;2023-02-28T05:59:37;99279.75;;;0.05;45.20
63285;BME280;49409;55.708;37.522;2023-02-28T06:02:05;99268.25;;;0.08;44.84
63285;BME280;49409;55.708;37.522;2023-02-28T06:04:30;99262.94;;;0.28;44.79
63285;BME280;49409;55.708;37.522;2023-02-28T06:06:55;99257.13;;;0.45;44.24
63285;BME280;49409;55.708;37.522;2023-02-28T06:09:22;99253.19;;;0.58;44.39
63285;BME280;49409;55.708;37.522;2023-02-28T06:11:48;99244.94;;;0.71;44.04
63285;BME280;49409;55.708;37.522;2023-02-28T06:14:17;99234.69;;;0.80;44.00
63285;BME280;49409;55.708;37.522;2023-02-28T06:16:42;99218.75;;;0.94;44.04
63285;BME280;49409;55.708;37.522;2023-02-28T06:19:10;99233.28;;;1.06;43.61
63285;BME280;49409;55.708;37.522;2023-02-28T06:21:35;99220.03;;;1.20;43.17
63285;BME280;49409;55.708;37.522;2023-02-28T06:24:01;99208.75;;;1.18;43.10
63285;BME280;49409;55.708;37.522;2023-02-28T06:26:27;99215.09;;;1.26;42.89
63285;BME280;49409;55.708;37.522;2023-02-28T06:28:52;99216.03;;;1.33;43.14
63285;BME280;49409;55.708;37.522;2023-02-28T06:31:18;99198.13;;;1.48;42.88
63285;BME280;49409;55.708;37.522;2023-02-28T06:33:44;99192.03;;;1.55;42.04
63285;BME280;49409;55.708;37.522;2023-02-28T06:36:10;99194.88;;;1.62;42.30
63285;BME280;49409;55.708;37.522;2023-02-28T06:38:35;99196.56;;;1.70;42.42
63285;BME280;49409;55.708;37.522;2023-02-28T06:41:01;99192.06;;;1.82;42.48
63285;BME280;49409;55.708;37.522;2023-02-28T06:43:30;99203.84;;;1.89;42.42
63285;BME280;49409;55.708;37.522;2023-02-28T06:45:57;99181.53;;;2.00;42.54
63285;BME280;49409;55.708;37.522;2023-02-28T06:48:23;99166.66;;;2.16;42.80
63285;BME280;49409;55.708;37.522;2023-02-28T06:50:48;99167.91;;;2.23;40.99
63285;BME280;49409;55.708;37.522;2023-02-28T06:53:14;99150.91;;;2.26;41.72
63285;BME280;49409;55.708;37.522;2023-02-28T06:55:40;99157.16;;;2.30;41.56
63285;BME280;49409;55.708;37.522;2023-02-28T06:58:05;99140.09;;;2.29;42.01
63285;BME280;49409;55.708;37.522;2023-02-28T07:00:40;99122.69;;;2.34;42.13
63285;BME280;49409;55.708;37.522;2023-02-28T07:03:06;99118.63;;;2.47;41.75
63285;BME280;49409;55.708;37.522;2023-02-28T07:05:31;99103.88;;;2.48;41.29
63285;BME280;49409;55.708;37.522;2023-02-28T07:07:56;99112.38;;;2.47;40.80
63285;BME280;49409;55.708;37.522;2023-02-28T07:10:22;99107.25;;;2.38;41.62
63285;BME280;49409;55.708;37.522;2023-02-28T07:12:47;99086.84;;;2.51;41.52
63285;BME280;49409;55.708;37.522;2023-02-28T07:15:12;99093.19;;;2.63;41.52
63285;BME280;49409;55.708;37.522;2023-02-28T07:17:38;99099.47;;;2.67;41.71
63285;BME280;49409;55.708;37.522;2023-02-28T07:20:03;99094.75;;;2.64;41.40
63285;BME280;49409;55.708;37.522;2023-02-28T07:22:29;99081.66;;;2.73;41.97
63285;BME280;49409;55.708;37.522;2023-02-28T07:24:55;99077.88;;;2.81;41.28
63285;BME280;49409;55.708;37.522;2023-02-28T07:27:20;99090.38;;;2.89;41.90
63285;BME280;49409;55.708;37.522;2023-02-28T07:29:50;99078.03;;;2.95;41.46
63285;BME280;49409;55.708;37.522;2023-02-28T07:32:15;99081.97;;;3.02;42.11
63285;BME280;49409;55.708;37.522;2023-02-28T07:34:41;99075.84;;;3.12;41.71
63285;BME280;49409;55.708;37.522;2023-02-28T07:37:06;99068.19;;;3.21;41.53
63285;BME280;49409;55.708;37.522;2023-02-28T07:39:31;99067.34;;;3.17;41.44
63285;BME280;49409;55.708;37.522;2023-02-28T07:41:57;99058.81;;;3.15;42.10
63285;BME280;49409;55.708;37.522;2023-02-28T07:44:22;99044.91;;;3.27;41.48
63285;BME280;49409;55.708;37.522;2023-02-28T07:46:47;99033.66;;;3.29;41.57
63285;BME280;49409;55.708;37.522;2023-02-28T07:49:13;99045.44;;;3.40;41.94
63285;BME280;49409;55.708;37.522;2023-02-28T07:51:38;99032.16;;;3.35;41.86
63285;BME280;49409;55.708;37.522;2023-02-28T07:56:57;99029.59;;;3.53;41.55
63285;BME280;49409;55.708;37.522;2023-02-28T07:59:22;99025.28;;;3.48;41.32
63285;BME280;49409;55.708;37.522;2023-02-28T08:01:48;99028.06;;;3.59;41.54
63285;BME280;49409;55.708;37.522;2023-02-28T08:04:15;99040.97;;;3.69;42.13
63285;BME280;49409;55.708;37.522;2023-02-28T08:06:41;99033.69;;;3.84;41.50
63285;BME280;49409;55.708;37.522;2023-02-28T08:09:06;99028.22;;;3.81;42.04
63285;BME280;49409;55.708;37.522;2023-02-28T08:11:32;99033.31;;;3.86;41.05
63285;BME280;49409;55.708;37.522;2023-02-28T08:13:57;99014.19;;;3.78;41.84
63285;BME280;49409;55.708;37.522;2023-02-28T08:16:23;99015.31;;;3.70;41.76
63285;BME280;49409;55.708;37.522;2023-02-28T08:18:51;98999.81;;;3.74;41.30
63285;BME280;49409;55.708;37.522;2023-02-28T08:21:17;98982.00;;;3.88;41.50
63285;BME280;49409;55.708;37.522;2023-02-28T08:23:42;98985.19;;;4.04;41.93
63285;BME280;49409;55.708;37.522;2023-02-28T08:26:07;98973.19;;;4.20;41.39
63285;BME280;49409;55.708;37.522;2023-02-28T08:28:33;98968.56;;;4.27;41.01
63285;BME280;49409;55.708;37.522;2023-02-28T08:30:58;98956.91;;;4.37;41.63
63285;BME280;49409;55.708;37.522;2023-02-28T08:33:24;98942.50;;;4.44;40.80
63285;BME280;49409;55.708;37.522;2023-02-28T08:35:53;98941.00;;;4.50;41.36
63285;BME280;49409;55.708;37.522;2023-02-28T08:38:19;98936.72;;;4.56;41.07
63285;BME280;49409;55.708;37.522;2023-02-28T08:40:44;98933.56;;;4.47;41.11
63285;BME280;49409;55.708;37.522;2023-02-28T08:43:10;98952.25;;;4.45;41.49
63285;BME280;49409;55.708;37.522;2023-02-28T08:45:35;99021.50;;;4.37;41.13
63285;BME280;49409;55.708;37.522;2023-02-28T08:48:00;99009.00;;;4.32;41.60
63285;BME280;49409;55.708;37.522;2023-02-28T08:50:26;99004.34;;;4.26;41.73
63285;BME280;49409;55.708;37.522;2023-02-28T08:52:51;99006.69;;;4.31;41.81
63285;BME280;49409;55.708;37.522;2023-02-28T08:55:16;99002.03;;;4.31;41.37
63285;BME280;49409;55.708;37.522;2023-02-28T08:57:42;98992.66;;;4.22;42.51
63285;BME280;49409;55.708;37.522;2023-02-28T09:00:07;98998.88;;;4.22;41.96
63285;BME280;49409;55.708;37.522;2023-02-28T09:02:33;98987.94;;;4.18;42.07
63285;BME280;49409;55.708;37.522;2023-02-28T09:04:58;98994.19;;;4.15;41.72
63285;BME280;49409;55.708;37.522;2023-02-28T09:07:24;98985.56;;;3.99;42.22
63285;BME280;49409;55.708;37.522;2023-02-28T09:09:50;98973.06;;;3.91;42.49
63285;BME280;49409;55.708;37.522;2023-02-28T09:12:26;98974.56;;;3.85;43.20
63285;BME280;49409;55.708;37.522;2023-02-28T09:14:52;98963.75;;;3.92;42.68
63285;BME280;49409;55.708;37.522;2023-02-28T09:17:17;98954.84;;;4.02;42.59
63285;BME280;49409;55.708;37.522;2023-02-28T09:19:43;98942.41;;;4.08;42.77
63285;BME280;49409;55.708;37.522;2023-02-28T09:22:09;98938.94;;;4.22;42.86
63285;BME280;49409;55.708;37.522;2023-02-28T09:24:35;98934.69;;;4.25;42.52
63285;BME280;49409;55.708;37.522;2023-02-28T09:27:00;98934.31;;;4.30;42.36
63285;BME280;49409;55.708;37.522;2023-02-28T09:29:26;98925.38;;;4.33;42.28
63285;BME280;49409;55.708;37.522;2023-02-28T09:31:51;98929.25;;;4.32;42.83
63285;BME280;49409;55.708;37.522;2023-02-28T09:34:17;98939.00;;;4.33;42.67
63285;BME280;49409;55.708;37.522;2023-02-28T09:36:42;98945.19;;;4.30;42.32
63285;BME280;49409;55.708;37.522;2023-02-28T09:39:08;98943.66;;;4.25;42.95
63285;BME280;49409;55.708;37.522;2023-02-28T09:41:38;98963.03;;;4.16;42.74
63285;BME280;49409;55.708;37.522;2023-02-28T09:44:13;98951.38;;;4.16;43.02
63285;BME280;49409;55.708;37.522;2023-02-28T09:46:41;98951.00;;;4.17;43.03
63285;BME280;49409;55.708;37.522;2023-02-28T09:49:11;98930.78;;;4.22;43.08
63285;BME280;49409;55.708;37.522;2023-02-28T09:51:46;98946.00;;;4.27;43.50
63285;BME280;49409;55.708;37.522;2023-02-28T09:54:23;98921.84;;;4.32;42.42
63285;BME280;49409;55.708;37.522;2023-02-28T10:04:41;98900.88;;;4.33;43.60
63285;BME280;49409;55.708;37.522;2023-02-28T10:07:20;98895.41;;;4.33;42.76
63285;BME280;49409;55.708;37.522;2023-02-28T10:09:47;98891.53;;;4.34;43.31
63285;BME280;49409;55.708;37.522;2023-02-28T10:12:14;98893.09;;;4.39;43.37
63285;BME280;49409;55.708;37.522;2023-02-28T10:14:40;98896.97;;;4.27;42.87
63285;BME280;49409;55.708;37.522;2023-02-28T10:17:13;98883.75;;;4.36;43.39
63285;BME280;49409;55.708;37.522;2023-02-28T10:22:24;98857.28;;;4.40;43.21
63285;BME280;49409;55.708;37.522;2023-02-28T10:24:52;98863.50;;;4.44;43.06
63285;BME280;49409;55.708;37.522;2023-02-28T10:27:20;98885.31;;;4.51;43.11
63285;BME280;49409;55.708;37.522;2023-02-28T10:29:47;98842.09;;;4.46;43.55
63285;BME280;49409;55.708;37.522;2023-02-28T10:32:20;98855.34;;;4.44;43.22
63285;BME280;49409;55.708;37.522;2023-02-28T10:34:53;98847.16;;;4.48;44.19
63285;BME280;49409;55.708;37.522;2023-02-28T10:37:20;98845.63;;;4.43;43.70
63285;BME280;49409;55.708;37.522;2023-02-28T10:39:46;98835.13;;;4.52;43.76
63285;BME280;49409;55.708;37.522;2023-02-28T10:42:19;98836.28;;;4.51;43.52
63285;BME280;49409;55.708;37.522;2023-02-28T10:44:45;98846.78;;;4.53;43.37
63285;BME280;49409;55.708;37.522;2023-02-28T10:47:14;98844.84;;;4.43;44.34
63285;BME280;49409;55.708;37.522;2023-02-28T10:49:46;98842.09;;;4.46;43.52
63285;BME280;49409;55.708;37.522;2023-02-28T10:52:12;98854.19;;;4.31;43.76
63285;BME280;49409;55.708;37.522;2023-02-28T10:54:37;98839.75;;;4.20;44.46
63285;BME280;49409;55.708;37.522;2023-02-28T10:57:06;98830.78;;;4.08;44.30
63285;BME280;49409;55.708;37.522;2023-02-28T10:59:33;98826.53;;;4.07;44.19
63285;BME280;49409;55.708;37.522;2023-02-28T11:01:58;98825.34;;;4.15;44.22
63285;BME280;49409;55.708;37.522;2023-02-28T11:09:24;98811.34;;;4.13;44.39
63285;BME280;49409;55.708;37.522;2023-02-28T11:11:52;98805.91;;;4.17;44.53
63285;BME280;49409;55.708;37.522;2023-02-28T11:14:52;98814.47;;;4.15;44.43
63285;BME280;49409;55.708;37.522;2023-02-28T11:17:20;98802.78;;;4.11;44.89
63285;BME280;49409;55.708;37.522;2023-02-28T11:19:46;98800.44;;;3.99;44.63
63285;BME280;49409;55.708;37.522;2023-02-28T11:22:16;98796.56;;;4.07;45.12
63285;BME280;49409;55.708;37.522;2023-02-28T11:24:44;98791.91;;;4.11;45.20
63285;BME280;49409;55.708;37.522;2023-02-28T11:29:51;98786.09;;;4.13;44.91
63285;BME280;49409;55.708;37.522;2023-02-28T11:32:20;98792.69;;;4.19;44.94
63285;BME280;49409;55.708;37.522;2023-02-28T11:34:47;98796.56;;;4.14;44.96
63285;BME280;49409;55.708;37.522;2023-02-28T11:37:25;98786.44;;;4.18;44.59
63285;BME280;49409;55.708;37.522;2023-02-28T11:39:52;98782.16;;;4.10;45.90
63285;BME280;49409;55.708;37.522;2023-02-28T11:42:28;98763.09;;;4.10;45.27
63285;BME280;49409;55.708;37.522;2023-02-28T11:50:04;98770.91;;;4.23;45.37
63285;BME280;49409;55.708;37.522;2023-02-28T11:57:51;98765.47;;;4.37;45.54
63285;BME280;49409;55.708;37.522;2023-02-28T12:02:51;98760.78;;;4.55;45.36
63285;BME280;49409;55.708;37.522;2023-02-28T12:12:48;98740.88;;;4.76;45.36
63285;BME280;49409;55.708;37.522;2023-02-28T12:22:57;98742.09;;;4.65;46.15
63285;BME280;49409;55.708;37.522;2023-02-28T12:28:08;98738.19;;;4.44;47.30
63285;BME280;49409;55.708;37.522;2023-02-28T12:30:35;98733.56;;;4.41;47.78
63285;BME280;49409;55.708;37.522;2023-02-28T12:33:14;98737.03;;;4.38;47.38
63285;BME280;49409;55.708;37.522;2023-02-28T12:35:49;98725.00;;;4.43;47.15
63285;BME280;49409;55.708;37.522;2023-02-28T12:38:19;98716.41;;;4.48;47.91
63285;BME280;49409;55.708;37.522;2023-02-28T12:43:25;98717.59;;;4.36;47.36
63285;BME280;49409;55.708;37.522;2023-02-28T12:45:59;98711.38;;;4.39;47.72
63285;BME280;49409;55.708;37.522;2023-02-28T12:50:55;98696.97;;;4.28;48.18
63285;BME280;49409;55.708;37.522;2023-02-28T12:53:23;98695.44;;;4.20;48.13
63285;BME280;49409;55.708;37.522;2023-02-28T13:04:02;98665.47;;;4.34;47.37
63285;BME280;49409;55.708;37.522;2023-02-28T13:11:27;98652.59;;;4.45;48.20
63285;BME280;49409;55.708;37.522;2023-02-28T13:13:58;98643.28;;;4.39;48.83
63285;BME280;49409;55.708;37.522;2023-02-28T13:16:24;98649.50;;;4.43;47.70
63285;BME280;49409;55.708;37.522;2023-02-28T13:18:52;98640.94;;;4.48;48.20
63285;BME280;49409;55.708;37.522;2023-02-28T13:21:33;98645.97;;;4.53;47.64
63285;BME280;49409;55.708;37.522;2023-02-28T13:24:07;98646.38;;;4.45;48.28
63285;BME280;49409;55.708;37.522;2023-02-28T13:34:20;98639.38;;;4.44;48.57
63285;BME280;49409;55.708;37.522;2023-02-28T13:36:46;98637.84;;;4.39;48.14
63285;BME280;49409;55.708;37.522;2023-02-28T13:41:55;98636.25;;;4.45;48.98
63285;BME280;49409;55.708;37.522;2023-02-28T13:44:21;98633.91;;;4.47;48.11
63285;BME280;49409;55.708;37.522;2023-02-28T14:05:33;98611.75;;;4.38;48.77
63285;BME280;49409;55.708;37.522;2023-02-28T14:08:03;98614.47;;;4.38;49.09
63285;BME280;49409;55.708;37.522;2023-02-28T14:10:31;98609.41;;;4.44;49.05
63285;BME280;49409;55.708;37.522;2023-02-28T14:18:05;98605.91;;;4.40;48.98
63285;BME280;49409;55.708;37.522;2023-02-28T14:20:32;98604.34;;;4.42;49.07
63285;BME280;49409;55.708;37.522;2023-02-28T14:25:37;98600.78;;;4.56;48.96
63285;BME280;49409;55.708;37.522;2023-02-28T14:31:07;98591.16;;;4.41;50.23
63285;BME280;49409;55.708;37.522;2023-02-28T14:36:21;98581.03;;;4.41;49.39
63285;BME280;49409;55.708;37.522;2023-02-28T14:38:53;98581.78;;;4.45;49.69
63285;BME280;49409;55.708;37.522;2023-02-28T14:41:30;98581.78;;;4.49;49.65
63285;BME280;49409;55.708;37.522;2023-02-28T14:43:59;98571.66;;;4.42;50.42
63285;BME280;49409;55.708;37.522;2023-02-28T14:46:42;98559.59;;;4.43;50.52
63285;BME280;49409;55.708;37.522;2023-02-28T14:52:02;98574.00;;;4.47;50.62
63285;BME280;49409;55.708;37.522;2023-02-28T14:54:28;98575.56;;;4.48;51.18
63285;BME280;49409;55.708;37.522;2023-02-28T14:56:54;98563.09;;;4.51;50.72
63285;BME280;49409;55.708;37.522;2023-02-28T14:59:26;98556.03;;;4.57;50.29
63285;BME280;49409;55.708;37.522;2023-02-28T15:01:52;98550.59;;;4.57;50.52
63285;BME280;49409;55.708;37.522;2023-02-28T15:04:32;98560.69;;;4.64;50.62
63285;BME280;49409;55.708;37.522;2023-02-28T15:07:10;98555.22;;;4.64;50.52
63285;BME280;49409;55.708;37.522;2023-02-28T15:09:36;98560.69;;;4.64;50.92
63285;BME280;49409;55.708;37.522;2023-02-28T15:12:01;98567.69;;;4.65;51.00
63285;BME280;49409;55.708;37.522;2023-02-28T15:14:27;98552.50;;;4.64;51.22
63285;BME280;49409;55.708;37.522;2023-02-28T15:16:56;98553.69;;;4.66;50.45
63285;BME280;49409;55.708;37.522;2023-02-28T15:19:26;98552.09;;;4.69;51.11
63285;BME280;49409;55.708;37.522;2023-02-28T15:21:55;98549.00;;;4.67;51.48
63285;BME280;49409;55.708;37.522;2023-02-28T15:26:53;98554.06;;;4.65;50.81
63285;BME280;49409;55.708;37.522;2023-02-28T15:29:23;98550.16;;;4.66;51.77
63285;BME280;49409;55.708;37.522;2023-02-28T15:32:19;98547.44;;;4.66;51.41
63285;BME280;49409;55.708;37.522;2023-02-28T15:34:36;98552.09;;;4.69;51.21
63285;BME280;49409;55.708;37.522;2023-02-28T15:37:02;98547.44;;;4.66;51.54
63285;BME280;49409;55.708;37.522;2023-02-28T15:39:31;98544.31;;;4.64;52.13
63285;BME280;49409;55.708;37.522;2023-02-28T15:42:13;98538.09;;;4.70;51.75